Time;durP1;ratioP1;P1;durP2;ratioP2;P2;SDS_P1;SDS_P2;PMS_P1;PMS_P2;Temp;Humidity;BMP_temperature;BMP_pressure;BME280_temperature;BME280_humidity;BME280_pressure;Samples;Min_cycle;Max_cycle;Signal;HPM_P1;HPM_P2
2021/11/03 00:00:50;;;;;;;;;;;14.30;99.90;;;;;;2073120;28;913;-59
2021/11/03 00:02:09;;;;;;;;;;;14.30;99.90;;;;;;2078361;28;2078;-60
2021/11/03 00:03:28;;;;;;;;;;;14.30;99.90;;;;;;2070345;28;986;-60
2021/11/03 00:04:48;;;;;;;;;;;14.30;99.90;;;;;;2075316;28;1616;-59
2021/11/03 00:06:07;;;;;;;;;;;14.30;99.90;;;;;;2072638;28;591;-59
2021/11/03 00:07:29;;;;;;;;;;;14.30;99.90;;;;;;2064441;28;745;-59
2021/11/03 00:08:48;;;;;;;;;;;14.30;99.90;;;;;;2064903;28;1329;-59
2021/11/03 00:10:08;;;;;;;;;;;14.30;99.90;;;;;;2064887;28;706;-59
2021/11/03 00:11:27;;;;;;;;;;;14.20;99.90;;;;;;2060777;28;670;-60
2021/11/03 00:12:46;;;;;;;;;;;14.30;99.90;;;;;;2058306;28;1450;-60
2021/11/03 00:14:05;;;;;;;;;;;14.20;99.90;;;;;;2069940;28;735;-59
2021/11/03 00:15:25;;;;;;;;;;;14.20;99.90;;;;;;2066724;28;1500;-60
2021/11/03 00:16:44;;;;;;;;;;;14.20;99.90;;;;;;2064545;28;677;-59
2021/11/03 00:18:03;;;;;;;;;;;14.20;99.90;;;;;;2064738;28;614;-60
2021/11/03 00:19:22;;;;;;;;;;;14.20;99.90;;;;;;2063932;28;1330;-58
2021/11/03 00:20:41;;;;;;;;;;;14.20;99.90;;;;;;2062616;28;671;-59
2021/11/03 00:22:01;;;;;;;;;;;14.20;99.90;;;;;;2045589;29;1959;-61
2021/11/03 00:23:20;;;;;;;;;;;14.20;99.90;;;;;;2059883;28;744;-59
2021/11/03 00:24:39;;;;;;;;;;;14.20;99.90;;;;;;2069652;28;1528;-59
2021/11/03 00:25:59;;;;;;;;;;;14.20;99.90;;;;;;2063736;28;680;-60
2021/11/03 00:27:18;;;;;;;;;;;14.20;99.90;;;;;;2054616;28;777;-59
2021/11/03 00:28:37;;;;;;;;;;;14.20;99.90;;;;;;2050555;28;1447;-60
2021/11/03 00:29:58;;;;;;;;;;;14.20;99.90;;;;;;2052276;28;758;-59
2021/11/03 00:31:17;;;;;;;;;;;14.20;99.90;;;;;;2061897;28;1025;-59
2021/11/03 00:32:36;;;;;;;;;;;14.20;99.90;;;;;;2069880;28;1236;-60
2021/11/03 00:33:56;;;;;;;;;;;14.20;99.90;;;;;;2073574;28;725;-59
2021/11/03 00:35:15;;;;;;;;;;;14.10;99.90;;;;;;2060554;28;1911;-60
2021/11/03 00:36:34;;;;;;;;;;;14.20;99.90;;;;;;2060100;28;802;-60
2021/11/03 00:37:53;;;;;;;;;;;14.20;99.90;;;;;;2056655;28;945;-60
2021/11/03 00:39:13;;;;;;;;;;;14.10;99.90;;;;;;2061872;28;1332;-59
2021/11/03 00:40:32;;;;;;;;;;;14.10;99.90;;;;;;2057007;28;782;-59
2021/11/03 00:41:52;;;;;;;;;;;14.20;99.90;;;;;;2056906;28;1907;-60
2021/11/03 00:43:11;;;;;;;;;;;14.10;99.90;;;;;;2060483;28;1573;-59
2021/11/03 00:44:31;;;;;;;;;;;14.20;99.90;;;;;;2061780;28;750;-59
2021/11/03 00:45:50;;;;;;;;;;;14.10;99.90;;;;;;2056675;28;812;-59
2021/11/03 00:47:10;;;;;;;;;;;14.20;99.90;;;;;;2056602;28;690;-58
2021/11/03 00:48:30;;;;;;;;;;;14.10;99.90;;;;;;2053814;28;728;-59
2021/11/03 00:49:49;;;;;;;;;;;14.10;99.90;;;;;;2053828;28;739;-59
2021/11/03 00:51:11;;;;;;;;;;;14.10;99.90;;;;;;2056550;28;955;-59
2021/11/03 00:52:31;;;;;;;;;;;14.10;99.90;;;;;;2061725;28;1972;-60
2021/11/03 00:53:50;;;;;;;;;;;14.10;99.90;;;;;;2056812;28;692;-60
2021/11/03 00:55:10;;;;;;;;;;;14.10;99.90;;;;;;2058340;28;1546;-59
2021/11/03 00:56:30;;;;;;;;;;;14.10;99.90;;;;;;2050979;28;703;-60
2021/11/03 00:57:49;;;;;;;;;;;14.10;99.90;;;;;;2051710;28;720;-59
2021/11/03 00:59:09;;;;;;;;;;;14.10;99.90;;;;;;2056338;28;1377;-59
2021/11/03 01:00:28;;;;;;;;;;;14.10;99.90;;;;;;2053340;28;603;-60
2021/11/03 01:01:47;;;;;;;;;;;14.10;99.90;;;;;;2072556;28;1971;-59
2021/11/03 01:03:06;;;;;;;;;;;14.10;99.90;;;;;;2061585;28;1446;-60
2021/11/03 01:04:26;;;;;;;;;;;14.10;99.90;;;;;;2069414;28;693;-59
2021/11/03 01:05:45;;;;;;;;;;;14.10;99.90;;;;;;2069333;28;1205;-60
2021/11/03 01:07:05;;;;;;;;;;;14.10;99.90;;;;;;2072905;28;793;-59
2021/11/03 01:08:24;;;;;;;;;;;14.10;99.90;;;;;;2072821;28;765;-59
2021/11/03 01:09:43;;;;;;;;;;;14.10;99.90;;;;;;2066474;28;1493;-60
2021/11/03 01:11:02;;;;;;;;;;;14.10;99.90;;;;;;2064630;28;739;-60
2021/11/03 01:12:21;;;;;;;;;;;14.10;99.90;;;;;;2061583;28;800;-60
2021/11/03 01:13:41;;;;;;;;;;;14.10;99.90;;;;;;2068837;28;1568;-59
2021/11/03 01:15:00;;;;;;;;;;;14.00;99.90;;;;;;2063069;28;1838;-60
2021/11/03 01:16:19;;;;;;;;;;;13.90;99.90;;;;;;2049630;28;1249;-60
2021/11/03 01:17:39;;;;;;;;;;;14.00;99.90;;;;;;2066737;28;796;-61
2021/11/03 01:18:58;;;;;;;;;;;14.10;99.90;;;;;;2064504;28;1462;-60
2021/11/03 01:20:17;;;;;;;;;;;14.00;99.90;;;;;;2056639;28;742;-61
2021/11/03 01:21:37;;;;;;;;;;;14.00;99.90;;;;;;2061703;28;808;-61
2021/11/03 01:22:56;;;;;;;;;;;14.00;99.90;;;;;;2064281;28;1617;-60
2021/11/03 01:24:16;;;;;;;;;;;14.00;99.90;;;;;;2056629;28;745;-61
2021/11/03 01:25:36;;;;;;;;;;;14.00;99.90;;;;;;2055461;28;1520;-60
2021/11/03 01:26:55;;;;;;;;;;;14.00;99.90;;;;;;2056036;28;740;-60
2021/11/03 01:28:15;;;;;;;;;;;14.00;99.90;;;;;;2056371;28;747;-60
2021/11/03 01:29:34;;;;;;;;;;;14.00;99.90;;;;;;2056573;28;762;-59
2021/11/03 01:30:53;;;;;;;;;;;14.00;99.90;;;;;;2050128;28;922;-59
2021/11/03 01:32:13;;;;;;;;;;;14.00;99.90;;;;;;2065859;28;1145;-59
2021/11/03 01:33:32;;;;;;;;;;;14.00;99.90;;;;;;2066034;28;1523;-60
2021/11/03 01:34:51;;;;;;;;;;;14.00;99.90;;;;;;2072096;28;1903;-60
2021/11/03 01:36:11;;;;;;;;;;;14.00;99.90;;;;;;2055060;28;808;-60
2021/11/03 01:37:31;;;;;;;;;;;14.00;99.90;;;;;;2056051;28;1012;-61
2021/11/03 01:38:50;;;;;;;;;;;14.00;99.90;;;;;;2056382;28;1447;-60
2021/11/03 01:40:11;;;;;;;;;;;14.00;99.90;;;;;;2053436;28;760;-60
2021/11/03 01:41:30;;;;;;;;;;;14.00;99.90;;;;;;2050900;28;767;-60
2021/11/03 01:42:50;;;;;;;;;;;13.90;99.90;;;;;;2050815;28;750;-59
2021/11/03 01:44:13;;;;;;;;;;;14.00;99.90;;;;;;2053147;28;731;-60
2021/11/03 01:45:33;;;;;;;;;;;14.00;99.90;;;;;;2056881;28;1928;-58
2021/11/03 01:46:53;;;;;;;;;;;13.90;99.90;;;;;;2047844;29;788;-60
2021/11/03 01:48:16;;;;;;;;;;;13.90;99.90;;;;;;2051237;28;749;-60
2021/11/03 01:49:35;;;;;;;;;;;13.90;99.90;;;;;;2056329;28;1364;-59
2021/11/03 01:51:01;;;;;;;;;;;13.90;99.90;;;;;;2062255;28;721;-60
2021/11/03 01:52:20;;;;;;;;;;;13.90;99.90;;;;;;2056173;28;756;-60
2021/11/03 01:53:43;;;;;;;;;;;14.00;99.90;;;;;;2061778;28;760;-61
2021/11/03 01:55:02;;;;;;;;;;;13.90;99.90;;;;;;2054821;28;1927;-60
2021/11/03 01:56:23;;;;;;;;;;;13.90;99.90;;;;;;2045488;29;735;-59
2021/11/03 01:57:46;;;;;;;;;;;13.90;99.90;;;;;;2045500;29;718;-60
2021/11/03 01:59:07;;;;;;;;;;;13.90;99.90;;;;;;2053612;28;1360;-60
2021/11/03 02:00:27;;;;;;;;;;;13.90;99.90;;;;;;2051387;28;725;-60
2021/11/03 02:01:50;;;;;;;;;;;13.90;99.90;;;;;;2057196;28;1962;-59
2021/11/03 02:03:14;;;;;;;;;;;13.90;99.90;;;;;;2066028;28;1203;-60
2021/11/03 02:04:35;;;;;;;;;;;13.90;99.90;;;;;;2056465;28;730;-60
2021/11/03 02:05:58;;;;;;;;;;;13.90;99.90;;;;;;2058499;28;700;-60
2021/11/03 02:07:19;;;;;;;;;;;13.90;99.90;;;;;;2048438;29;719;-61
2021/11/03 02:08:41;;;;;;;;;;;13.90;99.90;;;;;;2058686;28;1374;-60
2021/11/03 02:10:02;;;;;;;;;;;13.90;99.90;;;;;;2048511;29;771;-60
2021/11/03 02:11:22;;;;;;;;;;;13.90;99.90;;;;;;2058439;28;742;-59
2021/11/03 02:12:42;;;;;;;;;;;13.90;99.90;;;;;;2053030;28;1930;-59
2021/11/03 02:14:03;;;;;;;;;;;13.90;99.90;;;;;;2052780;28;2057;-60
2021/11/03 02:15:23;;;;;;;;;;;13.90;99.90;;;;;;2054586;28;1595;-59
2021/11/03 02:16:46;;;;;;;;;;;13.80;99.90;;;;;;2048341;29;715;-60
2021/11/03 02:18:05;;;;;;;;;;;13.80;99.90;;;;;;2058850;28;742;-60
2021/11/03 02:19:26;;;;;;;;;;;13.80;99.90;;;;;;2048231;29;1357;-61
2021/11/03 02:20:46;;;;;;;;;;;13.80;99.90;;;;;;2058272;28;782;-60
2021/11/03 02:22:14;;;;;;;;;;;13.80;99.90;;;;;;2047829;29;1966;-60
2021/11/03 02:23:38;;;;;;;;;;;13.80;99.90;;;;;;2062418;28;718;-59
2021/11/03 02:25:09;;;;;;;;;;;13.80;99.90;;;;;;2056324;28;1764;-59
2021/11/03 02:26:31;;;;;;;;;;;13.80;99.90;;;;;;2061869;28;753;-59
2021/11/03 02:27:50;;;;;;;;;;;13.90;99.90;;;;;;2061607;28;851;-59
2021/11/03 02:29:10;;;;;;;;;;;13.80;99.90;;;;;;2056328;28;1484;-59
2021/11/03 02:30:30;;;;;;;;;;;13.80;99.90;;;;;;2061355;28;784;-60
2021/11/03 02:31:50;;;;;;;;;;;13.80;99.90;;;;;;2069184;28;885;-61
2021/11/03 02:33:13;;;;;;;;;;;13.90;99.90;;;;;;2064078;28;997;-59
2021/11/03 02:34:33;;;;;;;;;;;13.80;99.90;;;;;;2073067;28;728;-60
2021/11/03 02:35:56;;;;;;;;;;;13.80;99.90;;;;;;2056200;28;750;-60
2021/11/03 02:37:27;;;;;;;;;;;13.80;99.90;;;;;;2057026;28;870;-60
2021/11/03 02:38:47;;;;;;;;;;;13.80;99.90;;;;;;2065860;28;1484;-61
2021/11/03 02:40:06;;;;;;;;;;;13.80;99.90;;;;;;2056567;28;954;-60
2021/11/03 02:41:26;;;;;;;;;;;13.80;99.90;;;;;;2065310;28;1032;-60
2021/11/03 02:42:46;;;;;;;;;;;13.80;99.90;;;;;;2063320;28;1910;-60
2021/11/03 02:44:10;;;;;;;;;;;13.80;99.90;;;;;;2054413;28;1065;-59
2021/11/03 02:45:49;;;;;;;;;;;13.80;99.90;;;;;;2062676;28;1486;-60
2021/11/03 02:47:10;;;;;;;;;;;13.80;99.90;;;;;;2065397;28;610;-60
2021/11/03 02:48:30;;;;;;;;;;;13.80;99.90;;;;;;2070286;28;662;-59
2021/11/03 02:49:50;;;;;;;;;;;13.80;99.90;;;;;;2057596;28;678;-60
2021/11/03 02:51:11;;;;;;;;;;;13.80;99.90;;;;;;2067046;28;631;-60
2021/11/03 02:52:31;;;;;;;;;;;13.80;99.90;;;;;;2065383;28;626;-60
2021/11/03 02:53:54;;;;;;;;;;;13.80;99.90;;;;;;2070437;28;1527;-60
2021/11/03 02:55:14;;;;;;;;;;;13.80;99.90;;;;;;2056975;28;1894;-58
2021/11/03 02:56:35;;;;;;;;;;;13.80;99.90;;;;;;2067010;28;749;-60
2021/11/03 02:57:54;;;;;;;;;;;13.70;99.90;;;;;;2057647;28;748;-59
2021/11/03 02:59:14;;;;;;;;;;;13.70;99.90;;;;;;2067466;28;1358;-60
2021/11/03 03:00:34;;;;;;;;;;;13.70;99.90;;;;;;2065713;28;714;-60
2021/11/03 03:01:54;;;;;;;;;;;13.70;99.90;;;;;;2071123;28;2019;-60
2021/11/03 03:03:14;;;;;;;;;;;13.70;99.90;;;;;;2065409;28;1226;-60
2021/11/03 03:04:35;;;;;;;;;;;13.70;99.90;;;;;;2059714;28;741;-59
2021/11/03 03:05:57;;;;;;;;;;;13.70;99.90;;;;;;2056625;28;1544;-60
2021/11/03 03:07:16;;;;;;;;;;;13.70;99.90;;;;;;2062234;28;785;-61
2021/11/03 03:08:36;;;;;;;;;;;13.70;99.90;;;;;;2062412;28;1382;-60
2021/11/03 03:09:55;;;;;;;;;;;13.70;99.90;;;;;;2062392;28;1609;-60
2021/11/03 03:11:14;;;;;;;;;;;13.70;99.90;;;;;;2065528;28;1292;-59
2021/11/03 03:12:33;;;;;;;;;;;13.70;99.90;;;;;;2076834;28;1646;-61
2021/11/03 03:13:52;;;;;;;;;;;13.70;99.90;;;;;;2064885;28;1471;-59
2021/11/03 03:15:12;;;;;;;;;;;13.70;99.90;;;;;;2074689;28;1507;-60
2021/11/03 03:16:31;;;;;;;;;;;13.70;99.90;;;;;;2054233;28;1748;-60
2021/11/03 03:17:51;;;;;;;;;;;13.70;99.90;;;;;;2057246;28;1580;-59
2021/11/03 03:19:10;;;;;;;;;;;13.70;99.90;;;;;;2061662;28;1520;-60
2021/11/03 03:20:30;;;;;;;;;;;13.70;99.90;;;;;;2057334;28;739;-59
2021/11/03 03:21:49;;;;;;;;;;;13.70;99.90;;;;;;2057398;28;764;-60
2021/11/03 03:23:09;;;;;;;;;;;13.70;99.90;;;;;;2063828;28;1929;-60
2021/11/03 03:24:28;;;;;;;;;;;13.70;99.90;;;;;;2073500;28;724;-60
2021/11/03 03:25:48;;;;;;;;;;;13.70;99.90;;;;;;2059594;28;1551;-60
2021/11/03 03:27:08;;;;;;;;;;;13.70;99.90;;;;;;2062448;28;739;-60
2021/11/03 03:28:28;;;;;;;;;;;13.70;99.90;;;;;;2057106;28;737;-60
2021/11/03 03:29:47;;;;;;;;;;;13.70;99.90;;;;;;2048885;29;788;-60
2021/11/03 03:31:08;;;;;;;;;;;13.70;99.90;;;;;;2059382;28;1040;-61
2021/11/03 03:32:27;;;;;;;;;;;13.70;99.90;;;;;;2056808;28;996;-60
2021/11/03 03:33:47;;;;;;;;;;;13.70;99.90;;;;;;2064148;28;1380;-60
2021/11/03 03:35:08;;;;;;;;;;;13.70;99.90;;;;;;2056542;28;1331;-59
2021/11/03 03:36:29;;;;;;;;;;;13.70;99.90;;;;;;2062939;28;1296;-61
2021/11/03 03:37:50;;;;;;;;;;;13.70;99.90;;;;;;2048638;28;1162;-62
2021/11/03 03:39:14;;;;;;;;;;;13.70;99.90;;;;;;2067477;28;1461;-60
2021/11/03 03:40:34;;;;;;;;;;;13.70;99.90;;;;;;2064464;28;1341;-60
2021/11/03 03:41:54;;;;;;;;;;;13.70;99.90;;;;;;2077800;28;1910;-60
2021/11/03 03:43:15;;;;;;;;;;;13.70;99.90;;;;;;2057351;28;1078;-62
2021/11/03 03:44:35;;;;;;;;;;;13.70;99.90;;;;;;2061152;28;874;-61
2021/11/03 03:45:54;;;;;;;;;;;13.70;99.90;;;;;;2057167;28;1391;-60
2021/11/03 03:47:14;;;;;;;;;;;13.70;99.90;;;;;;2070591;28;979;-62
2021/11/03 03:48:36;;;;;;;;;;;13.70;99.90;;;;;;2056136;28;1476;-62
2021/11/03 03:49:58;;;;;;;;;;;13.70;99.90;;;;;;2051413;28;952;-62
2021/11/03 03:51:19;;;;;;;;;;;13.70;99.90;;;;;;2048754;28;1189;-62
2021/11/03 03:52:42;;;;;;;;;;;13.70;99.90;;;;;;2056420;28;1011;-62
2021/11/03 03:54:03;;;;;;;;;;;13.70;99.90;;;;;;2056825;28;1198;-62
2021/11/03 03:55:23;;;;;;;;;;;13.70;99.90;;;;;;2056934;28;1669;-61
2021/11/03 03:56:43;;;;;;;;;;;13.70;99.90;;;;;;2068023;28;1338;-60
2021/11/03 03:58:02;;;;;;;;;;;13.70;99.90;;;;;;2054177;28;1541;-60
2021/11/03 03:59:22;;;;;;;;;;;13.70;99.90;;;;;;2057513;28;1445;-60
2021/11/03 04:00:42;;;;;;;;;;;13.70;99.90;;;;;;2060021;28;1459;-62
2021/11/03 04:02:01;;;;;;;;;;;13.70;99.90;;;;;;2060337;28;1902;-62
2021/11/03 04:03:20;;;;;;;;;;;13.70;99.90;;;;;;2061654;28;1537;-62
2021/11/03 04:04:41;;;;;;;;;;;13.60;99.90;;;;;;2061654;28;1219;-61
2021/11/03 04:06:00;;;;;;;;;;;13.60;99.90;;;;;;2056868;28;1295;-62
2021/11/03 04:07:19;;;;;;;;;;;13.60;99.90;;;;;;2061741;28;1533;-61
2021/11/03 04:08:39;;;;;;;;;;;13.60;99.90;;;;;;2064196;28;1395;-62
2021/11/03 04:09:58;;;;;;;;;;;13.70;99.90;;;;;;2065396;28;1369;-60
2021/11/03 04:11:17;;;;;;;;;;;13.60;99.90;;;;;;2064963;28;1140;-61
2021/11/03 04:12:36;;;;;;;;;;;13.60;99.90;;;;;;2063826;28;918;-61
2021/11/03 04:13:56;;;;;;;;;;;13.60;99.90;;;;;;2059924;28;947;-62
2021/11/03 04:15:17;;;;;;;;;;;13.60;99.90;;;;;;2065810;28;1370;-62
2021/11/03 04:16:36;;;;;;;;;;;13.60;99.90;;;;;;2075205;28;885;-60
2021/11/03 04:17:55;;;;;;;;;;;13.60;99.90;;;;;;2064447;28;910;-61
2021/11/03 04:19:15;;;;;;;;;;;13.60;99.90;;;;;;2057992;28;1476;-59
2021/11/03 04:20:34;;;;;;;;;;;13.60;99.90;;;;;;2055510;28;947;-60
2021/11/03 04:21:54;;;;;;;;;;;13.60;99.90;;;;;;2067103;28;1898;-61
2021/11/03 04:23:33;;;;;;;;;;;13.60;99.90;;;;;;2063080;28;1097;-61
2021/11/03 04:24:53;;;;;;;;;;;13.60;99.90;;;;;;2065491;28;1215;-60
2021/11/03 04:26:19;;;;;;;;;;;13.60;99.90;;;;;;2064342;28;1346;-60
2021/11/03 04:27:38;;;;;;;;;;;13.60;99.90;;;;;;2065277;28;1144;-61
2021/11/03 04:28:58;;;;;;;;;;;13.70;99.90;;;;;;2064925;28;1433;-60
2021/11/03 04:30:18;;;;;;;;;;;13.60;99.90;;;;;;2060369;28;1120;-60
2021/11/03 04:31:37;;;;;;;;;;;13.60;99.90;;;;;;2064838;28;1319;-60
2021/11/03 04:32:57;;;;;;;;;;;13.60;99.90;;;;;;2056513;28;1270;-60
2021/11/03 04:34:16;;;;;;;;;;;13.60;99.90;;;;;;2072251;28;1140;-60
2021/11/03 04:35:35;;;;;;;;;;;13.60;99.90;;;;;;2064033;28;1160;-60
2021/11/03 04:36:54;;;;;;;;;;;13.60;99.90;;;;;;2069826;28;1506;-60
2021/11/03 04:38:14;;;;;;;;;;;13.60;99.90;;;;;;2072740;28;955;-59
2021/11/03 04:39:33;;;;;;;;;;;13.60;99.90;;;;;;2064900;28;1354;-60
2021/11/03 04:40:53;;;;;;;;;;;13.60;99.90;;;;;;2069866;28;726;-61
2021/11/03 04:42:12;;;;;;;;;;;13.60;99.90;;;;;;2052482;28;1910;-59
2021/11/03 04:43:33;;;;;;;;;;;13.60;99.90;;;;;;2058482;28;735;-60
2021/11/03 04:44:52;;;;;;;;;;;13.60;99.90;;;;;;2056495;28;766;-59
2021/11/03 04:46:11;;;;;;;;;;;13.60;99.90;;;;;;2069211;28;1500;-60
2021/11/03 04:47:31;;;;;;;;;;;13.60;99.90;;;;;;2056528;28;722;-61
2021/11/03 04:48:50;;;;;;;;;;;13.60;99.90;;;;;;2066903;28;1452;-60
2021/11/03 04:50:12;;;;;;;;;;;13.60;99.90;;;;;;2064692;28;642;-61
2021/11/03 04:51:32;;;;;;;;;;;13.60;99.90;;;;;;2064503;28;1444;-60
2021/11/03 04:52:51;;;;;;;;;;;13.60;99.90;;;;;;2064378;28;613;-61
2021/11/03 04:54:11;;;;;;;;;;;13.50;99.90;;;;;;2056518;28;642;-60
2021/11/03 04:55:31;;;;;;;;;;;13.60;99.90;;;;;;2061049;28;1370;-60
2021/11/03 04:56:51;;;;;;;;;;;13.50;99.90;;;;;;2069074;28;600;-61
2021/11/03 04:58:11;;;;;;;;;;;13.50;99.90;;;;;;2064691;28;759;-61
2021/11/03 04:59:30;;;;;;;;;;;13.50;99.90;;;;;;2064580;28;1465;-60
2021/11/03 05:00:51;;;;;;;;;;;13.50;99.90;;;;;;2065110;28;1109;-60
2021/11/03 05:02:11;;;;;;;;;;;13.60;99.90;;;;;;2069731;28;1988;-60
2021/11/03 05:03:30;;;;;;;;;;;13.50;99.90;;;;;;2067435;28;1325;-60
2021/11/03 05:04:50;;;;;;;;;;;13.50;99.90;;;;;;2070010;28;745;-61
2021/11/03 05:06:10;;;;;;;;;;;13.60;99.90;;;;;;2066420;28;1850;-60
2021/11/03 05:07:30;;;;;;;;;;;13.50;99.90;;;;;;2056240;28;718;-61
2021/11/03 05:08:50;;;;;;;;;;;13.50;99.90;;;;;;2067535;28;1570;-60
2021/11/03 05:10:10;;;;;;;;;;;13.50;99.90;;;;;;2064587;28;797;-60
2021/11/03 05:11:30;;;;;;;;;;;13.60;99.90;;;;;;2069534;28;733;-61
2021/11/03 05:12:49;;;;;;;;;;;13.50;99.90;;;;;;2064139;28;767;-63
2021/11/03 05:14:08;;;;;;;;;;;13.50;99.90;;;;;;2069418;28;742;-61
2021/11/03 05:15:33;;;;;;;;;;;13.50;99.90;;;;;;2055179;28;1520;-60
2021/11/03 05:16:52;;;;;;;;;;;13.50;99.90;;;;;;2052502;28;683;-59
2021/11/03 05:18:11;;;;;;;;;;;13.50;99.90;;;;;;2053284;28;649;-60
2021/11/03 05:19:31;;;;;;;;;;;13.50;99.90;;;;;;2061310;28;1441;-60
2021/11/03 05:21:08;;;;;;;;;;;13.50;99.90;;;;;;2063760;28;1128;-60
2021/11/03 05:22:27;;;;;;;;;;;13.50;99.90;;;;;;2068990;28;2019;-59
2021/11/03 05:23:46;;;;;;;;;;;13.50;99.90;;;;;;2072789;28;669;-61
2021/11/03 05:25:05;;;;;;;;;;;13.50;99.90;;;;;;2063942;28;680;-60
2021/11/03 05:26:25;;;;;;;;;;;13.50;99.90;;;;;;2061144;28;1358;-59
2021/11/03 05:27:44;;;;;;;;;;;13.50;99.90;;;;;;2064763;28;774;-60
2021/11/03 05:29:03;;;;;;;;;;;13.50;99.90;;;;;;2065315;28;1392;-59
2021/11/03 05:30:23;;;;;;;;;;;13.50;99.90;;;;;;2065890;28;1932;-60
2021/11/03 05:31:42;;;;;;;;;;;13.50;99.90;;;;;;2063770;28;807;-60
2021/11/03 05:33:01;;;;;;;;;;;13.50;99.90;;;;;;2068296;28;1151;-61
2021/11/03 05:34:21;;;;;;;;;;;13.50;99.90;;;;;;2064591;28;1828;-59
2021/11/03 05:35:40;;;;;;;;;;;13.50;99.90;;;;;;2069265;28;1615;-60
2021/11/03 05:36:59;;;;;;;;;;;13.50;99.90;;;;;;2073211;28;734;-61
2021/11/03 05:38:18;;;;;;;;;;;13.50;99.90;;;;;;2073001;28;629;-60
2021/11/03 05:39:38;;;;;;;;;;;13.50;99.90;;;;;;2072338;28;646;-59
2021/11/03 05:40:57;;;;;;;;;;;13.50;99.90;;;;;;2064413;28;734;-60
2021/11/03 05:42:17;;;;;;;;;;;13.50;99.90;;;;;;2069087;28;1906;-61
2021/11/03 05:43:36;;;;;;;;;;;13.50;99.90;;;;;;2071096;28;1485;-59
2021/11/03 05:44:55;;;;;;;;;;;13.50;99.90;;;;;;2064967;28;590;-61
2021/11/03 05:46:15;;;;;;;;;;;13.50;99.90;;;;;;2059497;28;1398;-61
2021/11/03 05:47:34;;;;;;;;;;;13.50;99.90;;;;;;2064339;28;626;-61
2021/11/03 05:48:55;;;;;;;;;;;13.40;99.90;;;;;;2069638;28;1384;-59
2021/11/03 05:50:22;;;;;;;;;;;13.40;99.90;;;;;;2072265;28;695;-60
2021/11/03 05:51:42;;;;;;;;;;;13.40;99.90;;;;;;2073085;28;798;-59
2021/11/03 05:53:02;;;;;;;;;;;13.50;99.90;;;;;;2072950;28;743;-61
2021/11/03 05:54:25;;;;;;;;;;;13.50;99.90;;;;;;2065522;28;1640;-60
2021/11/03 05:55:45;;;;;;;;;;;13.40;99.90;;;;;;2056168;28;1693;-61
2021/11/03 05:57:04;;;;;;;;;;;13.50;99.90;;;;;;2061737;28;587;-60
2021/11/03 05:58:24;;;;;;;;;;;13.40;99.90;;;;;;2064325;28;735;-60
2021/11/03 05:59:43;;;;;;;;;;;13.50;99.90;;;;;;2056316;28;701;-60
2021/11/03 06:01:03;;;;;;;;;;;13.40;99.90;;;;;;2070594;28;1292;-61
2021/11/03 06:02:22;;;;;;;;;;;13.40;99.90;;;;;;2067792;28;1911;-60
2021/11/03 06:03:41;;;;;;;;;;;13.40;99.90;;;;;;2076902;28;1037;-61
2021/11/03 06:05:00;;;;;;;;;;;13.40;99.90;;;;;;2081333;28;800;-61
2021/11/03 06:06:20;;;;;;;;;;;13.40;99.90;;;;;;2069469;28;1542;-60
2021/11/03 06:07:39;;;;;;;;;;;13.50;99.90;;;;;;2064541;28;745;-61
2021/11/03 06:08:58;;;;;;;;;;;13.40;99.90;;;;;;2064715;28;1329;-61
2021/11/03 06:10:22;;;;;;;;;;;13.40;99.90;;;;;;2066178;28;730;-61
2021/11/03 06:11:42;;;;;;;;;;;13.40;99.90;;;;;;2057946;28;758;-60
2021/11/03 06:13:03;;;;;;;;;;;13.40;99.90;;;;;;2056153;28;790;-61
2021/11/03 06:14:22;;;;;;;;;;;13.40;99.90;;;;;;2067949;28;1403;-60
2021/11/03 06:15:41;;;;;;;;;;;13.40;99.90;;;;;;2073287;28;1720;-60
2021/11/03 06:17:00;;;;;;;;;;;13.40;99.90;;;;;;2057341;28;749;-60
2021/11/03 06:18:19;;;;;;;;;;;13.40;99.90;;;;;;2068201;28;753;-60
2021/11/03 06:19:39;;;;;;;;;;;13.40;99.90;;;;;;2074888;28;730;-61
2021/11/03 06:20:58;;;;;;;;;;;13.40;99.90;;;;;;2074737;28;737;-60
2021/11/03 06:22:17;;;;;;;;;;;13.40;99.90;;;;;;2074741;28;1903;-61
2021/11/03 06:23:37;;;;;;;;;;;13.40;99.90;;;;;;2064492;28;1820;-60
2021/11/03 06:24:57;;;;;;;;;;;13.40;99.90;;;;;;2062697;28;1224;-59
2021/11/03 06:26:21;;;;;;;;;;;13.40;99.90;;;;;;2065443;28;727;-61
2021/11/03 06:27:39;;;;;;;;;;;13.40;99.90;;;;;;2071671;28;792;-60
2021/11/03 06:28:59;;;;;;;;;;;13.40;99.90;;;;;;2074340;28;1366;-60
2021/11/03 06:30:19;;;;;;;;;;;13.40;99.90;;;;;;2074646;28;742;-60
2021/11/03 06:31:38;;;;;;;;;;;13.40;99.90;;;;;;2072546;28;1047;-59
2021/11/03 06:32:58;;;;;;;;;;;13.40;99.90;;;;;;2072752;28;881;-61
2021/11/03 06:34:17;;;;;;;;;;;13.40;99.90;;;;;;2061643;28;1369;-61
2021/11/03 06:35:37;;;;;;;;;;;13.40;99.90;;;;;;2068217;28;1930;-60
2021/11/03 06:36:57;;;;;;;;;;;13.40;99.90;;;;;;2074471;28;696;-60
2021/11/03 06:38:17;;;;;;;;;;;13.40;99.90;;;;;;2066599;28;1804;-60
2021/11/03 06:39:35;;;;;;;;;;;13.40;99.90;;;;;;2066787;28;1892;-60
2021/11/03 06:40:56;;;;;;;;;;;13.40;99.90;;;;;;2066038;28;726;-61
2021/11/03 06:42:16;;;;;;;;;;;13.40;99.90;;;;;;2066004;28;1906;-61
2021/11/03 06:43:35;;;;;;;;;;;13.40;99.90;;;;;;2073946;28;1209;-60
2021/11/03 06:44:55;;;;;;;;;;;13.40;99.90;;;;;;2065452;28;1945;-60
2021/11/03 06:46:14;;;;;;;;;;;13.40;99.90;;;;;;2062200;28;781;-60
2021/11/03 06:47:33;;;;;;;;;;;13.40;99.90;;;;;;2066202;28;1006;-60
2021/11/03 06:48:52;;;;;;;;;;;13.40;99.90;;;;;;2063516;28;1390;-60
2021/11/03 06:50:12;;;;;;;;;;;13.40;99.90;;;;;;2057757;28;734;-60
2021/11/03 06:51:33;;;;;;;;;;;13.40;99.90;;;;;;2063222;28;765;-59
2021/11/03 06:52:53;;;;;;;;;;;13.40;99.90;;;;;;2057481;28;814;-60
2021/11/03 06:54:12;;;;;;;;;;;13.40;99.90;;;;;;2062752;28;711;-61
2021/11/03 06:55:31;;;;;;;;;;;13.30;99.90;;;;;;2070170;28;1465;-60
2021/11/03 06:56:51;;;;;;;;;;;13.40;99.90;;;;;;2057196;28;718;-60
2021/11/03 06:58:10;;;;;;;;;;;13.40;99.90;;;;;;2062378;28;722;-59
2021/11/03 06:59:29;;;;;;;;;;;13.30;99.90;;;;;;2065579;28;1471;-60
2021/11/03 07:00:49;;;;;;;;;;;13.30;99.90;;;;;;2070959;28;953;-60
2021/11/03 07:02:09;;;;;;;;;;;13.40;99.90;;;;;;2062745;28;1910;-60
2021/11/03 07:03:28;;;;;;;;;;;13.30;99.90;;;;;;2071606;28;1631;-60
2021/11/03 07:04:48;;;;;;;;;;;13.40;99.90;;;;;;2073830;28;732;-61
2021/11/03 07:06:07;;;;;;;;;;;13.30;99.90;;;;;;2073734;28;717;-59
2021/11/03 07:07:26;;;;;;;;;;;13.30;99.90;;;;;;2067905;28;1654;-61
2021/11/03 07:08:47;;;;;;;;;;;13.30;99.90;;;;;;2065794;28;1318;-60
2021/11/03 07:10:06;;;;;;;;;;;13.30;99.90;;;;;;2066156;28;784;-60
2021/11/03 07:11:27;;;;;;;;;;;13.30;99.90;;;;;;2057354;28;793;-59
2021/11/03 07:12:46;;;;;;;;;;;13.30;99.90;;;;;;2060636;28;708;-60
2021/11/03 07:14:06;;;;;;;;;;;13.30;99.90;;;;;;2065614;28;679;-58
2021/11/03 07:15:25;;;;;;;;;;;13.30;99.90;;;;;;2057233;28;611;-61
2021/11/03 07:16:44;;;;;;;;;;;13.30;99.90;;;;;;2053396;28;622;-60
2021/11/03 07:18:04;;;;;;;;;;;13.30;99.90;;;;;;2062451;28;703;-61
2021/11/03 07:19:23;;;;;;;;;;;13.30;99.90;;;;;;2071644;28;1401;-59
2021/11/03 07:20:42;;;;;;;;;;;13.30;99.90;;;;;;2072919;28;1280;-60
2021/11/03 07:22:02;;;;;;;;;;;13.30;99.90;;;;;;2073891;28;2060;-61
2021/11/03 07:23:21;;;;;;;;;;;13.30;99.90;;;;;;2073562;28;690;-59
2021/11/03 07:24:41;;;;;;;;;;;13.30;99.90;;;;;;2072110;28;1590;-61
2021/11/03 07:26:00;;;;;;;;;;;13.30;99.90;;;;;;2057027;28;591;-61
2021/11/03 07:27:19;;;;;;;;;;;13.30;99.90;;;;;;2061928;28;707;-60
2021/11/03 07:28:38;;;;;;;;;;;13.30;99.90;;;;;;2057512;28;1347;-60
2021/11/03 07:29:58;;;;;;;;;;;13.30;99.90;;;;;;2067943;28;1538;-59
2021/11/03 07:31:17;;;;;;;;;;;13.30;99.90;;;;;;2069376;28;957;-61
2021/11/03 07:32:36;;;;;;;;;;;13.30;99.90;;;;;;2072270;28;1027;-60
2021/11/03 07:33:56;;;;;;;;;;;13.30;99.90;;;;;;2073429;28;765;-59
2021/11/03 07:35:15;;;;;;;;;;;13.30;99.90;;;;;;2057945;28;1443;-60
2021/11/03 07:36:34;;;;;;;;;;;13.30;99.90;;;;;;2062105;28;1791;-60
2021/11/03 07:37:54;;;;;;;;;;;13.30;99.90;;;;;;2056707;28;917;-59
2021/11/03 07:39:13;;;;;;;;;;;13.30;99.90;;;;;;2066907;28;1436;-61
2021/11/03 07:40:38;;;;;;;;;;;13.30;99.90;;;;;;2073530;28;693;-60
2021/11/03 07:41:57;;;;;;;;;;;13.30;99.90;;;;;;2073692;28;656;-60
2021/11/03 07:43:24;;;;;;;;;;;13.30;99.90;;;;;;2073081;28;535;-60
2021/11/03 07:44:44;;;;;;;;;;;13.30;99.90;;;;;;2063520;28;1434;-60
2021/11/03 07:46:03;;;;;;;;;;;13.30;99.90;;;;;;2053886;28;536;-62
2021/11/03 07:47:23;;;;;;;;;;;13.30;99.90;;;;;;2061820;28;1380;-61
2021/11/03 07:48:42;;;;;;;;;;;13.30;99.90;;;;;;2066308;28;1443;-61
2021/11/03 07:50:01;;;;;;;;;;;13.30;99.90;;;;;;2065662;28;618;-61
2021/11/03 07:51:21;;;;;;;;;;;13.30;99.90;;;;;;2065133;28;792;-61
2021/11/03 07:52:41;;;;;;;;;;;13.30;99.90;;;;;;2056883;28;723;-61
2021/11/03 07:54:00;;;;;;;;;;;13.30;99.90;;;;;;2053687;28;646;-61
2021/11/03 07:55:19;;;;;;;;;;;13.30;99.90;;;;;;2053853;28;634;-61
2021/11/03 07:56:39;;;;;;;;;;;13.30;99.90;;;;;;2056385;28;632;-61